Latest Weather Observations for Shepparton

IDV60801

Issued at 8:05 pm EDT Friday 31 October 2014 (issued every 30 minutes, with the page automatically refreshed every 10 minutes)

About weather observations | Map of weather stations | Latest weather observations for VIC | Other Formats
Station Details ID: 081125 Name: SHEPPARTON AIRPORT Lat: -36.43 Lon: 145.39 Height: 113.9 m
Data from the previous 72 hours. | See also: Recent months at Shepparton
Date/Time
EDT
Temp
°C
App
Temp
°C
Dew
Point
Rel
Hum
%
Delta-T
°C
Wind Press
QNH
hPa
Press
MSL
hPa
Rain
since 9 am
mm
Dir
 
Spd
km/h
Gust
km/h
Spd
kts
Gust
kts
31/08:00pm 25.7 22.9 5.3 27 10.5 N 9 13 5 7 1000.5 1000.4 0.0
31/07:30pm 28.1 24.7 1.6 18 13.0 NNW 9 11 5 6 1000.7 1000.6 0.0
31/07:00pm 30.9 27.3 0.3 14 14.9 NNW 9 15 5 8 1000.8 1000.7 0.0
31/06:30pm 33.3 29.8 1.2 13 16.1 WNW 9 13 5 7 1001.1 1000.9 0.0
31/06:00pm 33.2 27.6 -2.5 10 16.9 WNW 17 22 9 12 1001.5 1001.4 0.0
31/05:30pm 32.4 26.0 -1.8 11 16.2 NNW 22 32 12 17 1001.8 1001.7 0.0
31/05:00pm 33.5 26.4 -1.0 11 16.8 NNW 26 39 14 21 1002.2 1002.1 0.0
31/04:30pm 32.7 27.8 1.7 14 15.6 N 17 32 9 17 1002.7 1002.6 0.0
31/04:00pm 34.3 29.8 1.9 13 16.6 WNW 15 20 8 11 1003.1 1003.0 0.0
31/03:30pm 32.8 26.5 1.8 14 15.6 NNW 24 39 13 21 1003.7 1003.6 0.0
31/03:00pm 32.0 26.9 3.9 17 14.6 N 20 32 11 17 1004.4 1004.3 0.0
31/02:30pm 30.9 25.7 3.8 18 14.0 N 20 32 11 17 1005.2 1005.1 0.0
31/02:00pm 30.9 25.2 3.0 17 14.2 N 22 32 12 17 1005.8 1005.7 0.0
31/01:30pm 30.8 26.4 4.5 19 13.7 NNE 17 28 9 15 1006.2 1006.1 0.0
31/01:00pm 29.8 25.5 5.1 21 13.0 N 17 26 9 14 1006.9 1006.8 0.0
31/12:30pm 28.8 24.3 4.3 21 12.6 N 17 26 9 14 1007.5 1007.4 0.0
31/12:00pm 27.8 24.3 3.5 21 12.2 NE 11 19 6 10 1008.4 1008.3 0.0
31/11:30am 26.7 23.2 5.6 26 10.9 ENE 13 19 7 10 1008.9 1008.9 0.0
31/11:00am 24.6 20.9 4.4 27 10.1 NNE 13 19 7 10 1009.6 1009.6 0.0
31/10:30am 23.6 21.3 7.3 35 8.5 NE 9 13 5 7 1010.0 1010.0 0.0
31/10:00am 22.0 19.4 7.8 40 7.4 NE 11 15 6 8 1010.5 1010.4 0.0
31/09:30am 19.8 17.6 7.9 46 6.2 NE 9 15 5 8 1010.7 1010.6 0.0
31/09:00am 18.1 16.3 7.8 51 5.3 ENE 7 13 4 7 1011.1 1011.0 0.0
31/08:30am 14.6 13.0 8.8 68 3.0 E 7 9 4 5 1011.3 1011.2 0.0
31/08:00am 12.6 11.2 9.4 81 1.6 SE 7 11 4 6 1011.3 1011.2 0.0
31/07:30am 10.3 9.1 9.4 94 0.5 SSE 6 7 3 4 1011.4 1011.3 0.0
31/07:00am 8.0 6.3 7.4 96 0.3 S 6 7 3 4 1011.2 1011.1 0.0
31/06:30am 7.4 6.7 6.8 96 0.3 CALM 0 0 0 0 1011.1 1011.0 0.0
31/06:00am 7.5 6.8 6.9 96 0.3 ESE 0 0 0 0 1010.8 1010.7 0.0
31/05:30am 8.1 7.5 7.5 96 0.3 CALM 0 0 0 0 1010.8 1010.7 0.0
31/05:00am 8.2 6.5 7.6 96 0.3 SSE 6 6 3 3 1010.8 1010.7 0.0
31/04:30am 8.4 7.8 7.3 93 0.5 CALM 0 6 0 3 1010.8 1010.7 0.0
31/04:00am 8.5 6.5 7.3 92 0.6 S 7 7 4 4 1010.8 1010.7 0.0
31/03:30am 9.0 8.4 7.5 90 0.7 CALM 0 0 0 0 1010.7 1010.6 0.0
31/03:00am 9.6 8.7 7.7 88 0.9 SSE 2 6 1 3 1010.6 1010.5 0.0
31/02:30am 9.9 8.1 7.0 82 1.4 E 6 7 3 4 1010.8 1010.7 0.0
31/02:00am 11.3 9.2 8.3 82 1.5 S 9 13 5 7 1011.2 1011.1 0.0
31/01:30am 11.0 8.7 7.5 79 1.7 SSE 9 13 5 7 1011.7 1011.6 0.0
31/01:00am 12.7 11.1 8.0 73 2.3 S 6 11 3 6 1012.0 1011.9 0.0
31/12:30am 12.3 10.5 7.0 70 2.6 SSW 6 7 3 4 1012.1 1012.0 0.0
31/12:00am 12.7 10.6 6.7 67 2.9 SSW 7 9 4 5 1012.1 1012.0 0.0
 
Date/Time
EDT
Temp
°C
App
Temp
°C
Dew
Point
Rel
Hum
%
Delta-T
°C
Wind Press
QNH
hPa
Press
MSL
hPa
Rain
since 9 am
mm
Dir
 
Spd
km/h
Gust
km/h
Spd
kts
Gust
kts
30/11:30pm 14.1 13.3 6.7 61 3.6 CALM 0 0 0 0 1011.9 1011.8 0.0
30/11:00pm 15.1 13.3 7.2 59 3.9 W 6 17 3 9 1012.1 1012.0 0.0
30/10:30pm 14.1 13.1 7.2 63 3.4 NNW 2 7 1 4 1012.1 1012.0 0.0
30/10:00pm 13.9 11.3 6.0 59 3.8 NNW 9 11 5 6 1012.0 1011.9 0.0
30/09:30pm 15.9 15.1 6.6 54 4.6 CALM 0 0 0 0 1011.9 1011.8 0.0
30/09:00pm 18.1 17.3 6.3 46 5.9 CALM 0 0 0 0 1011.5 1011.4 0.0
30/08:30pm 19.4 18.1 4.3 37 7.3 CALM 0 0 0 0 1011.5 1011.4 0.0
30/08:00pm 21.4 19.2 3.6 31 8.6 N 4 7 2 4 1011.4 1011.3 0.0
30/07:30pm 24.1 21.5 3.4 26 10.1 NNW 6 7 3 4 1011.3 1011.2 0.0
30/07:00pm 26.1 22.5 2.7 22 11.5 WNW 11 17 6 9 1011.4 1011.3 0.0
30/06:30pm 26.7 21.9 2.6 21 11.8 WSW 17 22 9 12 1011.3 1011.2 0.0
30/06:00pm 26.9 21.5 2.7 21 11.9 WNW 20 24 11 13 1011.2 1011.1 0.0
30/05:30pm 26.9 22.0 4.0 23 11.5 W 19 30 10 16 1011.3 1011.2 0.0
30/05:00pm 27.4 23.5 3.2 21 12.1 W 13 24 7 13 1011.3 1011.2 0.0
30/04:30pm 27.2 22.6 3.7 22 11.8 W 17 28 9 15 1011.4 1011.3 0.0
30/04:00pm 26.9 22.6 3.4 22 11.7 WSW 15 26 8 14 1011.7 1011.6 0.0
30/03:30pm 27.3 22.5 4.4 23 11.7 W 19 30 10 16 1011.8 1011.7 0.0
30/03:00pm 27.1 22.5 5.4 25 11.2 NW 19 32 10 17 1012.2 1012.1 0.0
30/02:30pm 25.8 21.2 5.4 27 10.5 WNW 19 26 10 14 1012.8 1012.7 0.0
30/02:00pm 25.7 20.9 4.8 26 10.6 W 19 28 10 15 1013.2 1013.1 0.0
30/01:30pm 25.7 22.0 6.3 29 10.1 W 15 24 8 13 1013.3 1013.2 0.0
30/01:00pm 24.9 20.5 6.6 31 9.5 NW 19 26 10 14 1013.5 1013.4 0.0
30/12:30pm 24.6 21.2 7.7 34 9.0 W 15 24 8 13 1013.8 1013.7 0.0
30/12:00pm 24.4 20.4 8.4 36 8.6 W 19 26 10 14 1014.1 1014.0 0.0
30/11:30am 23.0 20.1 8.3 39 7.8 W 13 20 7 11 1014.4 1014.3 0.0
30/11:00am 22.3 20.7 8.8 42 7.2 W 7 13 4 7 1014.7 1014.6 0.0
30/10:30am 21.1 19.6 8.4 44 6.7 WSW 6 13 3 7 1015.1 1015.0 0.0
30/10:00am 20.1 18.4 8.4 47 6.1 WNW 7 9 4 5 1015.3 1015.2 0.0
30/09:30am 18.4 16.8 8.7 53 5.1 N 7 13 4 7 1015.3 1015.2 0.0
30/09:00am 17.2 16.6 8.9 58 4.3 NE 2 7 1 4 1015.2 1015.1 0.0
30/08:30am 15.0 13.4 8.9 67 3.1 NNE 7 11 4 6 1015.1 1015.0 0.0
30/08:00am 13.1 11.6 8.4 73 2.4 ENE 6 11 3 6 1014.8 1014.7 0.0
30/07:30am 11.5 10.8 8.5 82 1.5 ENE 2 6 1 3 1014.6 1014.5 0.0
30/07:00am 9.0 7.8 8.1 94 0.4 SE 4 7 2 4 1014.9 1014.8 0.0
30/06:30am 7.9 6.9 7.3 96 0.3 SSE 2 6 1 3 1014.5 1014.4 0.0
30/06:00am 8.1 6.3 7.3 95 0.4 SE 6 7 3 4 1014.1 1014.0 0.0
30/05:30am 8.9 7.3 7.8 93 0.5 ESE 6 7 3 4 1013.9 1013.8 0.0
30/05:00am 9.1 7.4 7.7 91 0.7 SSE 6 6 3 3 1013.8 1013.7 0.0
30/04:30am 9.7 9.1 7.6 87 1.0 CALM 0 0 0 0 1013.8 1013.7 0.0
30/04:00am 10.4 10.1 8.5 88 0.9 CALM 0 0 0 0 1013.9 1013.8 0.0
30/03:30am 10.4 8.8 8.0 85 1.2 SW 6 9 3 5 1014.1 1014.0 0.0
30/03:00am 11.0 10.5 7.7 80 1.6 CALM 0 0 0 0 1014.1 1014.0 0.0
30/02:30am 11.3 10.8 7.8 79 1.7 CALM 0 0 0 0 1014.3 1014.2 0.0
30/02:00am 10.8 9.4 7.1 78 1.8 SW 4 7 2 4 1014.5 1014.4 0.0
30/01:30am 11.1 8.7 7.0 76 2.0 S 9 11 5 6 1014.5 1014.4 0.0
30/01:00am 11.5 10.8 7.0 74 2.2 CALM 0 0 0 0 1014.8 1014.7 0.0
30/12:30am 11.6 9.9 7.5 76 2.0 N 6 7 3 4 1014.5 1014.4 0.0
30/12:00am 12.3 11.5 8.0 75 2.1 N 2 7 1 4 1014.7 1014.6 0.0
 
Date/Time
EDT
Temp
°C
App
Temp
°C
Dew
Point
Rel
Hum
%
Delta-T
°C
Wind Press
QNH
hPa
Press
MSL
hPa
Rain
since 9 am
mm
Dir
 
Spd
km/h
Gust
km/h
Spd
kts
Gust
kts
29/11:30pm 14.0 13.3 8.4 69 2.8 N 2 6 1 3 1014.7 1014.6 0.0
29/11:00pm 14.5 13.3 8.2 66 3.2 N 4 7 2 4 1014.9 1014.8 0.0
29/10:30pm 13.6 12.0 8.0 69 2.8 N 6 7 3 4 1015.1 1015.0 0.0
29/10:00pm 13.7 11.6 8.1 69 2.8 N 9 9 5 5 1015.1 1015.0 0.0
29/09:30pm 14.5 13.5 7.5 63 3.5 N 2 6 1 3 1015.2 1015.1 0.0
29/09:00pm 16.5 14.8 7.7 56 4.4 SE 6 7 3 4 1015.0 1014.9 0.0
29/08:30pm 17.4 15.3 6.6 49 5.4 N 7 9 4 5 1014.8 1014.7 0.0
29/08:00pm 18.7 16.7 6.9 46 5.9 NNW 7 7 4 4 1014.9 1014.8 0.0
29/07:30pm 21.1 18.6 6.6 39 7.4 NW 9 11 5 6 1014.8 1014.7 0.0
29/07:00pm 22.6 20.1 6.4 35 8.3 WNW 9 17 5 9 1014.6 1014.5 0.0
29/06:30pm 22.8 19.4 6.1 34 8.5 WNW 13 19 7 10 1014.5 1014.4 0.0
29/06:00pm 23.4 19.3 6.2 33 8.8 W 17 26 9 14 1014.7 1014.6 0.0
29/05:30pm 23.1 18.9 5.5 32 8.9 W 17 28 9 15 1014.8 1014.7 0.0
29/05:00pm 23.6 19.9 6.4 33 8.9 W 15 24 8 13 1014.8 1014.7 0.0
29/04:30pm 23.0 18.5 5.9 33 8.7 NW 19 28 10 15 1014.9 1014.8 0.0
29/04:00pm 22.7 19.5 6.9 36 8.2 WNW 13 26 7 14 1015.1 1015.0 0.0
29/03:30pm 22.1 19.1 5.9 35 8.2 W 11 20 6 11 1015.4 1015.3 0.0
29/03:00pm 21.7 17.6 6.0 36 7.9 SW 17 24 9 13 1016.1 1016.0 0.0
29/02:30pm 21.5 17.3 5.8 36 7.9 WSW 17 28 9 15 1016.5 1016.5 0.0
29/02:00pm 21.7 18.0 6.4 37 7.8 W 15 26 8 14 1016.9 1016.9 0.0
29/01:30pm 20.7 16.7 6.6 40 7.2 WSW 17 30 9 16 1017.3 1017.3 0.0
29/01:00pm 19.1 16.0 5.6 41 6.6 WSW 11 17 6 9 1017.8 1017.8 0.0
29/12:30pm 18.5 14.6 5.4 42 6.4 SW 15 30 8 16 1018.1 1018.1 0.0
29/12:00pm 18.1 15.5 6.3 46 5.8 WNW 9 19 5 10 1018.5 1018.5 0.0
29/11:30am 17.6 13.5 6.2 47 5.6 SW 17 24 9 13 1018.9 1018.9 0.0
29/11:00am 16.1 12.7 5.7 50 5.0 WNW 13 20 7 11 1019.3 1019.2 0.0
29/10:30am 15.3 11.7 4.9 50 4.9 WSW 13 26 7 14 1019.6 1019.5 0.0
29/10:00am 15.1 11.2 5.3 52 4.7 WSW 15 24 8 13 1019.7 1019.6 0.0
29/09:30am 14.6 10.3 5.4 54 4.4 SSW 17 24 9 13 1019.6 1019.5 0.0
29/09:00am 13.7 9.8 5.3 57 3.9 SW 15 22 8 12 1019.6 1019.5 0.0
29/08:30am 13.2 10.0 6.8 65 3.1 SSW 13 17 7 9 1019.4 1019.3 0.0
29/08:00am 11.5 8.7 6.8 73 2.2 SW 11 15 6 8 1019.3 1019.2 0.0
29/07:30am 9.6 7.7 6.5 81 1.5 WSW 6 11 3 6 1019.0 1019.0 0.0
29/07:00am 7.2 6.2 5.5 89 0.8 CALM 0 0 0 0 1018.9 1018.9 0.0
29/06:30am 6.6 3.9 5.4 92 0.5 WSW 9 11 5 6 1018.6 1018.6 0.0
29/06:00am 6.4 3.2 5.0 91 0.6 WSW 11 13 6 7 1018.2 1018.2 0.0
29/05:30am 6.5 3.7 5.1 91 0.6 WSW 9 13 5 7 1017.7 1017.7 0.0
29/05:00am 6.8 4.0 5.1 89 0.8 WSW 9 11 5 6 1017.5 1017.5 0.0
29/04:30am 7.4 5.0 5.2 86 1.0 SW 7 9 4 5 1017.2 1017.2 0.0
29/04:00am 7.6 4.8 5.2 85 1.1 SW 9 11 5 6 1017.0 1017.0 0.0
29/03:30am 8.0 5.3 5.5 84 1.1 SW 9 11 5 6 1017.0 1017.0 0.0
29/03:00am 8.4 6.1 5.7 83 1.2 SW 7 9 4 5 1017.0 1017.0 0.0
29/02:30am 9.2 6.6 5.9 80 1.5 SSW 9 9 5 5 1017.0 1017.0 0.0
29/02:00am 9.8 6.8 6.2 78 1.7 S 11 15 6 8 1016.9 1016.9 0.0
29/01:30am 10.6 7.3 6.6 76 1.9 SSW 13 17 7 9 1017.1 1017.1 0.0
29/01:00am 10.7 7.9 7.0 78 1.8 S 11 15 6 8 1017.2 1017.2 0.0
29/12:30am 11.7 8.2 7.4 75 2.1 S 15 17 8 9 1017.1 1017.1 0.0
29/12:00am 12.7 9.3 7.8 72 2.4 S 15 19 8 10 1017.0 1017.0 0.0
 
Date/Time
EDT
Temp
°C
App
Temp
°C
Dew
Point
Rel
Hum
%
Delta-T
°C
Wind Press
QNH
hPa
Press
MSL
hPa
Rain
since 9 am
mm
Dir
 
Spd
km/h
Gust
km/h
Spd
kts
Gust
kts
28/11:30pm 13.2 9.5 8.1 71 2.5 S 17 24 9 13 1016.8 1016.8 0.0
28/11:00pm 13.8 10.1 8.0 68 2.9 S 17 24 9 13 1016.5 1016.5 0.0
28/10:30pm 14.6 10.4 7.6 63 3.5 SSW 19 24 10 13 1016.4 1016.4 0.0
28/10:00pm 14.9 11.5 7.7 62 3.6 SSW 15 22 8 12 1015.9 1015.8 0.0
28/09:30pm 14.0 11.3 7.5 65 3.2 SSW 11 13 6 7 1015.6 1015.5 0.0
28/09:00pm 14.7 11.9 7.0 60 3.8 SSW 11 13 6 7 1015.3 1015.2 0.0
28/08:30pm 15.2 12.8 7.0 58 4.0 SSW 9 11 5 6 1014.8 1014.7 0.0

Other Formats:

Comma delimited format used in spreadsheet applications
http://www.bom.gov.au/fwo/IDV60801/IDV60801.94875.axf

JavaScript Object Notation format (JSON) in row-major order
http://www.bom.gov.au/fwo/IDV60801/IDV60801.94875.json